Time;durP1;ratioP1;P1;durP2;ratioP2;P2;SDS_P1;SDS_P2;PMS_P1;PMS_P2;Temp;Humidity;BMP_temperature;BMP_pressure;BME280_temperature;BME280_humidity;BME280_pressure;Samples;Min_cycle;Max_cycle;Signal;HPM_P1;HPM_P2
2023/09/20 00:03:12;;;;;;;1999.90;999.90;;;;;;;17.14;96.49;100766.06;10464541;28;20052;-79
2023/09/20 00:08:15;;;;;;;1999.90;999.90;;;;;;;17.17;94.49;100756.06;10461933;28;20079;-79
2023/09/20 00:13:17;;;;;;;1999.90;999.90;;;;;;;17.07;99.82;100766.59;10467293;28;20087;-79
2023/09/20 00:18:20;;;;;;;1999.90;999.90;;;;;;;16.97;98.30;100770.16;10461825;28;20584;-79
2023/09/20 00:23:23;;;;;;;1999.90;999.90;;;;;;;17.07;97.67;100763.09;10462045;28;20095;-79
2023/09/20 00:28:25;;;;;;;1999.90;999.90;;;;;;;16.96;97.58;100768.47;10460754;28;20127;-79
2023/09/20 00:33:29;;;;;;;1999.90;999.90;;;;;;;17.03;97.57;100757.25;10463036;28;20049;-78
2023/09/20 00:38:32;;;;;;;1999.90;999.90;;;;;;;17.04;99.13;100758.06;10463709;28;20052;-79
2023/09/20 00:43:35;;;;;;;1999.90;999.90;;;;;;;16.97;99.24;100756.94;10466360;28;20131;-79
2023/09/20 00:48:38;;;;;;;1999.90;999.90;;;;;;;16.95;99.77;100765.00;10476616;28;20164;-79
2023/09/20 00:53:43;;;;;;;1999.90;999.90;;;;;;;16.88;100.00;100755.91;10472127;28;20049;-79
2023/09/20 00:58:45;;;;;;;1999.90;999.90;;;;;;;16.90;100.00;100753.97;10470030;28;20390;-80
2023/09/20 01:03:48;;;;;;;1999.90;999.90;;;;;;;16.76;100.00;100752.47;10471297;28;20052;-78
2023/09/20 01:08:51;;;;;;;1999.90;999.90;;;;;;;16.73;100.00;100760.66;10469409;28;20485;-79
2023/09/20 01:13:53;;;;;;;1999.90;999.90;;;;;;;16.50;100.00;100754.63;10475094;28;20053;-79
2023/09/20 01:18:56;;;;;;;1999.90;999.90;;;;;;;16.37;100.00;100757.44;10473405;28;20049;-79
2023/09/20 01:23:59;;;;;;;1999.90;999.90;;;;;;;16.27;100.00;100751.25;10473131;28;20049;-79
2023/09/20 01:29:02;;;;;;;1999.90;999.90;;;;;;;16.21;100.00;100747.31;10459248;28;20079;-79
2023/09/20 01:34:05;;;;;;;1999.90;999.90;;;;;;;16.29;100.00;100738.75;10476656;28;20052;-79
2023/09/20 01:39:08;;;;;;;1999.90;999.90;;;;;;;16.12;100.00;100729.56;10480391;28;20041;-79
2023/09/20 01:44:10;;;;;;;1999.90;999.90;;;;;;;16.10;100.00;100742.06;10474826;28;20076;-79
2023/09/20 01:49:13;;;;;;;1999.90;999.90;;;;;;;16.20;100.00;100726.31;10469644;28;20052;-79
2023/09/20 01:54:16;;;;;;;1999.90;999.90;;;;;;;15.95;100.00;100731.81;10467461;28;20140;-79
2023/09/20 01:59:21;;;;;;;1999.90;999.90;;;;;;;15.95;100.00;100712.47;10469874;28;20506;-78
2023/09/20 02:04:23;;;;;;;1999.90;999.90;;;;;;;16.06;100.00;100724.81;10468983;28;20061;-79
2023/09/20 02:09:26;;;;;;;1999.90;999.90;;;;;;;15.95;100.00;100715.09;10471809;28;20107;-78
2023/09/20 02:14:29;;;;;;;1999.90;999.90;;;;;;;15.89;100.00;100703.25;10471550;28;20135;-78
2023/09/20 02:19:31;;;;;;;1999.90;999.90;;;;;;;15.91;100.00;100709.25;10471387;28;20052;-78
2023/09/20 02:24:34;;;;;;;1999.90;999.90;;;;;;;15.93;100.00;100701.19;10453488;28;20053;-78
2023/09/20 02:29:37;;;;;;;1999.90;999.90;;;;;;;15.95;100.00;100708.03;10470810;28;20049;-78
2023/09/20 02:34:39;;;;;;;1999.90;999.90;;;;;;;15.90;100.00;100697.03;10453411;28;20485;-78
2023/09/20 02:39:42;;;;;;;1999.90;999.90;;;;;;;15.82;100.00;100712.63;10466148;28;20079;-78
2023/09/20 02:44:47;;;;;;;1999.90;999.90;;;;;;;15.87;100.00;100705.19;10464793;28;20059;-78
2023/09/20 02:49:49;;;;;;;1999.90;999.90;;;;;;;15.82;100.00;100685.38;10469771;28;20102;-78
2023/09/20 02:54:51;;;;;;;1999.90;999.90;;;;;;;15.82;100.00;100678.31;10449237;28;20072;-78
2023/09/20 02:59:54;;;;;;;1999.90;999.90;;;;;;;15.65;100.00;100679.66;10465406;28;20052;-78
2023/09/20 03:04:56;;;;;;;1999.90;999.90;;;;;;;15.80;100.00;100680.22;10467267;28;20049;-78
2023/09/20 03:09:59;;;;;;;1999.90;999.90;;;;;;;15.92;100.00;100671.31;10467757;28;20068;-79
2023/09/20 03:15:04;;;;;;;1999.90;999.90;;;;;;;15.71;100.00;100665.13;10469955;28;20084;-79
2023/09/20 03:20:10;;;;;;;1999.90;999.90;;;;;;;15.77;100.00;100662.84;10450020;28;20041;-79
2023/09/20 03:25:13;;;;;;;1999.90;999.90;;;;;;;15.89;100.00;100668.94;10462196;28;20056;-79
2023/09/20 03:30:16;;;;;;;1999.90;999.90;;;;;;;15.66;100.00;100657.56;10465568;28;20410;-79
2023/09/20 03:35:21;;;;;;;1999.90;999.90;;;;;;;15.70;100.00;100659.00;10449200;28;20124;-79
2023/09/20 03:40:24;;;;;;;1999.90;999.90;;;;;;;15.56;100.00;100664.56;10450403;28;20057;-78
2023/09/20 03:45:28;;;;;;;1999.90;999.90;;;;;;;15.56;100.00;100667.19;10466689;28;20044;-79
2023/09/20 03:50:31;;;;;;;1999.90;999.90;;;;;;;15.69;100.00;100681.06;10454243;28;20077;-79
2023/09/20 03:55:34;;;;;;;1999.90;999.90;;;;;;;15.66;100.00;100667.28;10469645;28;20052;-78
2023/09/20 04:00:38;;;;;;;1999.90;999.90;;;;;;;15.53;100.00;100664.78;10466523;28;20049;-78
2023/09/20 04:05:40;;;;;;;1999.90;999.90;;;;;;;15.45;100.00;100660.16;10467118;28;20053;-77
2023/09/20 04:10:47;;;;;;;1999.90;999.90;;;;;;;15.46;100.00;100655.69;10468628;28;20450;-79
2023/09/20 04:15:50;;;;;;;1999.90;999.90;;;;;;;15.50;100.00;100659.75;10447787;28;20088;-78
2023/09/20 04:20:53;;;;;;;1999.90;999.90;;;;;;;15.45;100.00;100654.00;10470975;28;20080;-79
2023/09/20 04:25:55;;;;;;;1999.90;999.90;;;;;;;15.51;100.00;100649.09;10470402;28;20419;-80
2023/09/20 04:30:58;;;;;;;1999.90;999.90;;;;;;;15.48;100.00;100643.22;10474209;28;20124;-79
2023/09/20 04:36:04;;;;;;;1999.90;999.90;;;;;;;15.41;100.00;100641.06;10458471;28;20514;-79
2023/09/20 04:41:11;;;;;;;1999.90;999.90;;;;;;;15.52;100.00;100640.22;10475642;28;20072;-80
2023/09/20 04:46:14;;;;;;;1999.90;999.90;;;;;;;15.39;100.00;100635.09;10472556;28;20124;-79
2023/09/20 04:51:16;;;;;;;1999.90;999.90;;;;;;;15.43;100.00;100638.31;10458157;28;20052;-79
2023/09/20 04:56:18;;;;;;;1999.90;999.90;;;;;;;15.54;100.00;100635.66;10473218;28;20057;-79
2023/09/20 05:01:22;;;;;;;1999.90;999.90;;;;;;;15.65;100.00;100633.94;10474899;28;20517;-79
2023/09/20 05:06:24;;;;;;;1999.90;999.90;;;;;;;15.50;100.00;100636.00;10476816;28;20049;-79
2023/09/20 05:11:27;;;;;;;1999.90;999.90;;;;;;;15.60;100.00;100642.22;10476646;28;20087;-79
2023/09/20 05:16:32;;;;;;;1999.90;999.90;;;;;;;15.56;100.00;100640.81;10473227;28;20053;-79
2023/09/20 05:21:35;;;;;;;1999.90;999.90;;;;;;;15.39;100.00;100647.44;10473300;28;20117;-79
2023/09/20 05:26:37;;;;;;;1999.90;999.90;;;;;;;15.35;100.00;100653.94;10428799;22;20060;-79
2023/09/20 05:31:39;;;;;;;1999.90;999.90;;;;;;;15.48;100.00;100643.22;10388685;28;20117;-79
2023/09/20 05:36:43;;;;;;;1999.90;999.90;;;;;;;15.39;100.00;100634.25;10393563;28;20504;-78
2023/09/20 05:41:45;;;;;;;1999.90;999.90;;;;;;;15.39;100.00;100634.25;10394106;28;20049;-72
2023/09/20 05:46:49;;;;;;;1999.90;999.90;;;;;;;15.42;100.00;100637.47;10379270;28;20111;-76
2023/09/20 05:51:52;;;;;;;1999.90;999.90;;;;;;;15.52;100.00;100624.38;10378945;28;20058;-76
2023/09/20 05:56:54;;;;;;;1999.90;999.90;;;;;;;15.57;100.00;100626.66;10378479;28;20057;-76
2023/09/20 06:01:58;;;;;;;1999.90;999.90;;;;;;;15.73;100.00;100624.44;10378635;28;20111;-76
2023/09/20 06:07:04;;;;;;;1999.90;999.90;;;;;;;15.66;100.00;100633.81;10379038;28;20053;-76
2023/09/20 06:12:07;;;;;;;1999.90;999.90;;;;;;;15.87;100.00;100628.63;10377050;28;20145;-76
2023/09/20 06:17:09;;;;;;;1999.90;999.90;;;;;;;15.89;100.00;100631.13;10378131;28;20050;-76
2023/09/20 06:22:13;;;;;;;1999.90;999.90;;;;;;;15.74;100.00;100623.47;10377858;28;20089;-76
2023/09/20 06:27:15;;;;;;;1999.90;999.90;;;;;;;15.89;100.00;100615.31;10376365;28;20053;-76
2023/09/20 06:32:18;;;;;;;1999.90;999.90;;;;;;;15.96;100.00;100616.47;10377992;28;20045;-76
2023/09/20 06:37:21;;;;;;;1999.90;999.90;;;;;;;16.04;100.00;100603.47;10376145;28;20410;-76
2023/09/20 06:42:28;;;;;;;1999.90;999.90;;;;;;;15.93;100.00;100611.44;10359805;28;20084;-76
2023/09/20 06:47:31;;;;;;;1999.90;999.90;;;;;;;16.18;100.00;100618.13;10377455;28;20060;-76
2023/09/20 06:52:33;;;;;;;1999.90;999.90;;;;;;;16.13;100.00;100610.59;10377178;28;20077;-76
2023/09/20 06:57:36;;;;;;;1999.90;999.90;;;;;;;16.42;100.00;100614.38;10377063;28;20108;-76
2023/09/20 07:02:39;;;;;;;1999.90;999.90;;;;;;;16.45;100.00;100608.84;10376276;28;20072;-76
2023/09/20 07:07:42;;;;;;;1999.90;999.90;;;;;;;16.59;100.00;100597.91;10375570;28;20137;-76
2023/09/20 07:12:46;;;;;;;1999.90;999.90;;;;;;;16.65;100.00;100594.75;10376495;28;20050;-74
2023/09/20 07:17:50;;;;;;;1999.90;999.90;;;;;;;17.01;100.00;100604.94;10376399;28;20046;-75
2023/09/20 07:22:53;;;;;;;1999.90;999.90;;;;;;;17.19;100.00;100600.69;10375189;28;20057;-75
2023/09/20 07:27:58;;;;;;;1999.90;999.90;;;;;;;17.37;100.00;100592.91;10411254;28;20063;-75
2023/09/20 07:33:02;;;;;;;1999.90;999.90;;;;;;;17.41;100.00;100598.78;10416124;28;20053;-76
2023/09/20 07:38:18;;;;;;;1999.90;999.90;;;;;;;17.67;100.00;100593.78;10400344;28;20049;-74
2023/09/20 07:43:21;;;;;;;1999.90;999.90;;;;;;;18.06;100.00;100592.97;10415280;28;20045;-75
2023/09/20 07:48:32;;;;;;;1999.90;999.90;;;;;;;18.66;100.00;100584.69;10416232;28;20060;-75
2023/09/20 07:53:35;;;;;;;1999.90;999.90;;;;;;;18.78;98.05;100583.53;10414879;28;20084;-75
2023/09/20 07:58:40;;;;;;;1999.90;999.90;;;;;;;19.14;96.30;100574.84;10398198;28;20046;-75
2023/09/20 08:03:50;;;;;;;1999.90;999.90;;;;;;;19.22;93.64;100581.09;10415230;28;20480;-76
2023/09/20 08:08:56;;;;;;;;;;;;;;;18.60;96.21;100574.69;10414078;28;20510;-75
2023/09/20 08:14:00;;;;;;;1999.90;999.90;;;;;;;18.53;97.11;100563.81;10415348;28;19921;-76
2023/09/20 09:01:49;;;;;;;1999.90;999.90;;;;;;;20.96;79.95;100599.97;10413042;28;20107;-76
2023/09/20 09:06:51;;;;;;;1999.90;999.90;;;;;;;20.74;82.50;100599.56;10399442;28;20461;-75
2023/09/20 09:11:59;;;;;;;1999.90;999.90;;;;;;;20.92;81.61;100609.28;10422080;28;20052;-76
2023/09/20 09:17:03;;;;;;;1999.90;999.90;;;;;;;21.72;78.64;100611.53;10421361;28;20500;-76
2023/09/20 09:22:10;;;;;;;1999.90;999.90;;;;;;;21.60;81.03;100610.16;10420039;28;20486;-76
2023/09/20 09:27:14;;;;;;;1999.90;999.90;;;;;;;22.02;77.19;100603.84;10419943;28;20053;-76
2023/09/20 09:32:16;;;;;;;1999.90;999.90;;;;;;;22.33;75.20;100592.53;10420165;28;20049;-76
2023/09/20 09:37:18;;;;;;;1999.90;999.90;;;;;;;22.12;77.09;100604.50;10403007;28;20050;-76
2023/09/20 09:42:25;;;;;;;1999.90;999.90;;;;;;;21.44;76.35;100601.13;10419911;28;20133;-73
2023/09/20 09:47:29;;;;;;;1999.90;999.90;;;;;;;21.34;77.96;100595.13;10420221;28;20464;-76
2023/09/20 09:52:33;;;;;;;1999.90;999.90;;;;;;;21.13;76.97;100615.03;10419535;28;20049;-76
2023/09/20 09:57:35;;;;;;;1999.90;999.90;;;;;;;20.89;79.44;100597.13;10418592;28;20520;-76
2023/09/20 10:02:43;;;;;;;1999.90;999.90;;;;;;;21.05;81.87;100584.91;10419059;28;20042;-76
2023/09/20 10:07:48;;;;;;;1999.90;999.90;;;;;;;20.72;82.50;100579.44;10418946;28;20061;-76
2023/09/20 10:12:51;;;;;;;1999.90;999.90;;;;;;;21.07;81.96;100569.59;10418688;28;20051;-76
2023/09/20 10:17:59;;;;;;;1999.90;999.90;;;;;;;22.13;81.04;100563.50;10418690;28;20053;-76
2023/09/20 10:23:04;;;;;;;1999.90;999.90;;;;;;;23.61;73.77;100551.34;10401232;28;20091;-76
2023/09/20 10:28:10;;;;;;;1999.90;999.90;;;;;;;23.39;72.74;100561.88;10417305;28;20581;-76
2023/09/20 10:33:13;;;;;;;1999.90;999.90;;;;;;;22.80;74.41;100562.34;10416812;28;20049;-76
2023/09/20 10:38:23;;;;;;;1999.90;999.90;;;;;;;22.89;73.25;100561.28;10400483;28;20053;-76
2023/09/20 10:43:37;;;;;;;1999.90;999.90;;;;;;;24.18;72.31;100550.84;10400963;28;20045;-75
2023/09/20 10:48:51;;;;;;;1999.90;999.90;;;;;;;23.44;69.73;100556.81;10418258;28;20124;-75
2023/09/20 10:53:55;;;;;;;1999.90;999.90;;;;;;;23.19;69.65;100534.78;10416893;28;20049;-76
2023/09/20 10:58:59;;;;;;;1999.90;999.90;;;;;;;22.96;71.79;100529.38;10399899;28;20133;-76
2023/09/20 11:04:05;;;;;;;1999.90;999.90;;;;;;;22.57;70.37;100538.25;10399119;28;20047;-75
2023/09/20 11:09:11;;;;;;;1999.90;999.90;;;;;;;24.19;70.89;100522.25;10416996;28;20124;-74
2023/09/20 11:14:14;;;;;;;1999.90;999.90;;;;;;;24.18;68.23;100524.09;10416777;28;20083;-74
2023/09/20 11:19:19;;;;;;;1999.90;999.90;;;;;;;24.76;66.07;100512.72;10416493;28;20054;-75
2023/09/20 11:24:23;;;;;;;1999.90;999.90;;;;;;;24.10;68.62;100506.28;10416747;28;20058;-74
2023/09/20 11:29:25;;;;;;;1999.90;999.90;;;;;;;23.44;71.45;100519.41;10399200;28;20045;-74
2023/09/20 11:34:43;;;;;;;1999.90;999.90;;;;;;;24.05;67.18;100511.34;10415920;28;20068;-75
2023/09/20 11:39:49;;;;;;;1999.90;999.90;;;;;;;23.65;68.29;100513.38;10398656;28;20052;-75
2023/09/20 11:45:01;;;;;;;1999.90;999.90;;;;;;;24.06;68.54;100507.69;10416342;28;20128;-75
2023/09/20 11:50:24;;;;;;;;;;;;;;;22.67;71.35;100519.38;10402128;28;20057;-71
2023/09/20 11:55:30;;;;;;;1999.90;999.90;;;;;;;22.60;72.47;100512.06;10381960;28;20381;-72
2023/09/20 12:00:33;;;;;;;1999.90;999.90;;;;;;;23.03;71.55;100492.97;10397617;28;20103;-75
2023/09/20 12:05:36;;;;;;;1999.90;999.90;;;;;;;23.21;70.95;100497.22;10380371;28;20128;-75
2023/09/20 12:10:40;;;;;;;1999.90;999.90;;;;;;;24.24;70.03;100485.94;10415416;28;20050;-73
2023/09/20 12:15:43;;;;;;;1999.90;999.90;;;;;;;24.04;67.49;100488.31;10415545;28;20055;-75
2023/09/20 12:20:48;;;;;;;1999.90;999.90;;;;;;;23.07;69.22;100497.00;10397280;28;20045;-75
2023/09/20 12:25:50;;;;;;;1999.90;999.90;;;;;;;24.44;64.53;100491.53;10414501;28;20491;-69
2023/09/20 12:30:53;;;;;;;1999.90;999.90;;;;;;;23.44;68.28;100489.22;10397257;28;20483;-70
2023/09/20 12:35:55;;;;;;;1999.90;999.90;;;;;;;25.37;65.80;100474.88;10397676;28;20050;-71
2023/09/20 12:40:58;;;;;;;1999.90;999.90;;;;;;;24.41;66.11;100486.56;10416115;28;20449;-70
2023/09/20 12:46:01;;;;;;;1999.90;999.90;;;;;;;25.12;65.30;100477.06;10423217;28;20053;-71
2023/09/20 12:51:07;;;;;;;1999.90;999.90;;;;;;;24.87;64.29;100474.75;10422876;28;20053;-68
2023/09/20 12:56:13;;;;;;;1999.90;999.90;;;;;;;24.24;66.04;100475.22;10406002;28;20045;-70
2023/09/20 13:01:16;;;;;;;1999.90;999.90;;;;;;;23.34;65.79;100465.41;10421969;28;20482;-66
2023/09/20 13:06:18;;;;;;;1999.90;999.90;;;;;;;23.26;69.78;100462.81;10404759;28;20081;-69
2023/09/20 13:11:22;;;;;;;1999.90;999.90;;;;;;;22.94;71.21;100459.34;10403684;28;20405;-69
2023/09/20 13:16:25;;;;;;;1999.90;999.90;;;;;;;23.38;67.49;100453.34;10422114;28;20057;-69
2023/09/20 13:21:28;;;;;;;1999.90;999.90;;;;;;;24.08;67.05;100446.00;10404339;28;20049;-69
2023/09/20 13:26:30;;;;;;;1999.90;999.90;;;;;;;23.19;67.55;100454.69;10420469;28;20536;-69
2023/09/20 13:31:35;;;;;;;1999.90;999.90;;;;;;;24.38;66.56;100443.31;10421776;28;20099;-69
2023/09/20 13:36:37;;;;;;;1999.90;999.90;;;;;;;23.77;66.81;100427.44;10422282;28;20081;-70
2023/09/20 13:41:39;;;;;;;1999.90;999.90;;;;;;;23.92;64.29;100410.41;10404151;28;20441;-70
2023/09/20 13:46:45;;;;;;;1999.90;999.90;;;;;;;23.54;64.88;100418.47;10404672;28;20056;-69
2023/09/20 13:51:50;;;;;;;1999.90;999.90;;;;;;;24.39;65.56;100408.31;10403698;28;20046;-68
2023/09/20 13:56:52;;;;;;;1999.90;999.90;;;;;;;23.33;67.83;100397.81;10421650;28;20092;-69
2023/09/20 14:01:58;;;;;;;1999.90;999.90;;;;;;;23.26;67.96;100393.38;10387669;28;20080;-69
2023/09/20 14:07:00;;;;;;;1999.90;999.90;;;;;;;23.58;65.62;100388.72;10403209;28;20054;-69
2023/09/20 14:12:05;;;;;;;1999.90;999.90;;;;;;;23.08;66.54;100389.19;10419131;28;20513;-69
2023/09/20 14:17:08;;;;;;;1999.90;999.90;;;;;;;22.81;68.54;100385.19;10401844;28;20489;-69
2023/09/20 14:22:10;;;;;;;1999.90;999.90;;;;;;;22.45;68.83;100394.59;10419611;28;20055;-69
2023/09/20 14:27:13;;;;;;;1999.90;999.90;;;;;;;23.16;67.68;100385.59;10418727;28;20057;-69
2023/09/20 14:32:15;;;;;;;1999.90;999.90;;;;;;;22.25;73.05;100377.34;10419035;28;20053;-68
2023/09/20 14:37:21;;;;;;;1999.90;999.90;;;;;;;22.87;70.25;100386.31;10418329;28;20079;-69
2023/09/20 14:42:25;;;;;;;1999.90;999.90;;;;;;;22.65;71.76;100371.97;10418768;28;20049;-69
2023/09/20 14:47:27;;;;;;;1999.90;999.90;;;;;;;22.82;70.03;100369.00;10418498;28;20053;-69
2023/09/20 14:52:30;;;;;;;1999.90;999.90;;;;;;;22.37;71.63;100367.97;10400088;28;20406;-70
2023/09/20 14:57:33;;;;;;;1999.90;999.90;;;;;;;22.02;72.25;100369.28;10417528;28;20513;-69
2023/09/20 15:02:35;;;;;;;1999.90;999.90;;;;;;;21.51;73.29;100372.28;10417199;28;20441;-68
2023/09/20 15:07:38;;;;;;;1999.90;999.90;;;;;;;21.38;74.93;100378.09;10417404;28;20180;-69
2023/09/20 15:12:48;;;;;;;1999.90;999.90;;;;;;;21.54;73.93;100374.59;10417179;28;20386;-68
2023/09/20 15:17:50;;;;;;;1999.90;999.90;;;;;;;20.93;79.31;100385.63;10382949;28;20510;-69
2023/09/20 15:22:52;;;;;;;1999.90;999.90;;;;;;;20.92;78.62;100378.63;10399841;28;20050;-69
2023/09/20 15:27:55;;;;;;;1999.90;999.90;;;;;;;20.76;78.06;100382.13;10398580;28;20517;-68
2023/09/20 15:32:58;;;;;;;1999.90;999.90;;;;;;;20.92;78.69;100373.28;10416762;28;20048;-68
2023/09/20 15:38:01;;;;;;;1999.90;999.90;;;;;;;21.04;76.73;100370.31;10399364;28;20136;-72
2023/09/20 15:43:03;;;;;;;1999.90;999.90;;;;;;;20.68;78.21;100365.28;10415924;28;20076;-72
2023/09/20 15:48:06;;;;;;;1999.90;999.90;;;;;;;20.80;78.89;100355.19;10398263;28;20560;-73
2023/09/20 15:53:10;;;;;;;1999.90;999.90;;;;;;;20.78;79.07;100360.66;10416175;28;20052;-72
2023/09/20 15:58:12;;;;;;;1999.90;999.90;;;;;;;20.86;80.24;100352.66;10416019;28;20137;-72
2023/09/20 16:03:16;;;;;;;1999.90;999.90;;;;;;;20.87;78.82;100346.34;10415833;28;20050;-73
2023/09/20 16:08:21;;;;;;;1999.90;999.90;;;;;;;20.80;78.27;100332.06;10397705;28;20053;-73
2023/09/20 16:13:23;;;;;;;1999.90;999.90;;;;;;;20.54;80.21;100322.38;10398116;28;20049;-73
2023/09/20 16:18:28;;;;;;;1999.90;999.90;;;;;;;20.38;81.38;100328.50;10414136;28;20402;-72
2023/09/20 16:23:30;;;;;;;1999.90;999.90;;;;;;;20.20;84.40;100333.09;10398245;28;20128;-72
2023/09/20 16:28:33;;;;;;;1999.90;999.90;;;;;;;20.23;84.27;100328.28;10397321;28;20053;-73
2023/09/20 16:33:37;;;;;;;1999.90;999.90;;;;;;;20.17;83.53;100326.31;10396916;28;20075;-72
2023/09/20 16:38:40;;;;;;;1999.90;999.90;;;;;;;19.89;87.23;100320.41;10415127;28;20049;-72
2023/09/20 16:43:42;;;;;;;1999.90;999.90;;;;;;;19.80;91.29;100316.03;10415103;28;20045;-73
2023/09/20 16:48:45;;;;;;;1999.90;999.90;;;;;;;19.85;88.70;100308.41;10415015;28;20128;-72
2023/09/20 16:53:47;;;;;;;1999.90;999.90;;;;;;;19.58;94.50;100302.28;10414164;28;20113;-72
2023/09/20 16:58:50;;;;;;;1999.90;999.90;;;;;;;19.45;98.39;100302.75;10414962;28;20112;-72
2023/09/20 17:03:52;;;;;;;1999.90;999.90;;;;;;;19.26;100.00;100289.69;10414696;28;20056;-72
2023/09/20 17:08:55;;;;;;;1999.90;999.90;;;;;;;19.21;100.00;100284.00;10414559;28;20073;-73
2023/09/20 17:13:57;;;;;;;1999.90;999.90;;;;;;;18.86;100.00;100267.19;10414351;28;20046;-72
2023/09/20 17:18:59;;;;;;;1999.90;999.90;;;;;;;18.68;100.00;100267.22;10396525;28;20121;-72
2023/09/20 17:24:03;;;;;;;1999.90;999.90;;;;;;;18.44;100.00;100273.13;10413988;28;20046;-71
2023/09/20 17:29:06;;;;;;;1999.90;999.90;;;;;;;18.24;100.00;100265.34;10418212;28;20560;-72
2023/09/20 17:34:08;;;;;;;1999.90;999.90;;;;;;;18.15;100.00;100261.75;10421596;28;20050;-72
2023/09/20 17:39:13;;;;;;;1999.90;999.90;;;;;;;17.99;100.00;100251.84;10434060;22;20048;-73
2023/09/20 17:44:16;;;;;;;1999.90;999.90;;;;;;;17.84;100.00;100245.34;10462410;28;20049;-73
2023/09/20 17:49:19;;;;;;;1999.90;999.90;;;;;;;17.76;100.00;100240.78;10444536;28;20227;-73
2023/09/20 17:54:22;;;;;;;1999.90;999.90;;;;;;;17.68;100.00;100248.63;10461795;28;20045;-72
2023/09/20 17:59:25;;;;;;;1999.90;999.90;;;;;;;17.60;100.00;100254.69;10461771;28;20103;-73
2023/09/20 18:04:27;;;;;;;1999.90;999.90;;;;;;;17.37;100.00;100261.34;10460957;28;20111;-73
2023/09/20 18:09:34;;;;;;;1999.90;999.90;;;;;;;17.19;100.00;100267.38;10461423;28;20103;-73
2023/09/20 18:14:37;;;;;;;1999.90;999.90;;;;;;;17.23;100.00;100267.91;10461130;28;20103;-72
2023/09/20 18:19:40;;;;;;;1999.90;999.90;;;;;;;17.06;100.00;100262.41;10460970;28;20053;-73
2023/09/20 18:24:45;;;;;;;1999.90;999.90;;;;;;;16.94;100.00;100257.41;10460797;28;20045;-73
2023/09/20 18:29:48;;;;;;;1999.90;999.90;;;;;;;16.74;100.00;100254.75;10459986;28;20075;-73
2023/09/20 18:34:50;;;;;;;1999.90;999.90;;;;;;;16.57;100.00;100252.84;10442042;28;20555;-73
2023/09/20 18:39:53;;;;;;;1999.90;999.90;;;;;;;16.65;100.00;100251.16;10459136;28;20061;-72
2023/09/20 18:44:56;;;;;;;1999.90;999.90;;;;;;;16.72;100.00;100259.34;10441722;28;20095;-72
2023/09/20 18:49:58;;;;;;;1999.90;999.90;;;;;;;16.63;100.00;100261.03;10442137;28;20052;-73
2023/09/20 18:55:00;;;;;;;1999.90;999.90;;;;;;;16.64;100.00;100259.22;10441217;28;20490;-73
2023/09/20 19:00:07;;;;;;;1999.90;999.90;;;;;;;16.43;100.00;100256.75;10459404;28;20075;-73
2023/09/20 19:05:10;;;;;;;1999.90;999.90;;;;;;;16.76;100.00;100265.19;10459240;28;20076;-73
2023/09/20 19:10:13;;;;;;;1999.90;999.90;;;;;;;16.81;100.00;100268.25;10458984;28;20055;-73
2023/09/20 19:15:15;;;;;;;1999.90;999.90;;;;;;;16.86;100.00;100261.59;10441054;28;20123;-73
2023/09/20 19:20:19;;;;;;;1999.90;999.90;;;;;;;16.95;100.00;100265.22;10440369;28;20048;-72
2023/09/20 19:25:23;;;;;;;1999.90;999.90;;;;;;;16.83;100.00;100264.50;10440760;28;20055;-72
2023/09/20 19:30:25;;;;;;;1999.90;999.90;;;;;;;16.63;100.00;100263.69;10458061;28;20057;-73
2023/09/20 19:35:28;;;;;;;1999.90;999.90;;;;;;;16.61;100.00;100257.72;10424065;28;20041;-73
2023/09/20 19:40:30;;;;;;;1999.90;999.90;;;;;;;16.51;100.00;100255.06;10439468;28;20053;-72
2023/09/20 19:45:33;;;;;;;1999.90;999.90;;;;;;;16.55;100.00;100250.34;10440083;28;20047;-72
2023/09/20 19:50:36;;;;;;;1999.90;999.90;;;;;;;16.70;100.00;100243.63;10423579;28;20052;-72
2023/09/20 19:55:39;;;;;;;1999.90;999.90;;;;;;;16.74;100.00;100244.19;10457238;28;20101;-72
2023/09/20 20:00:43;;;;;;;1999.90;999.90;;;;;;;16.80;100.00;100235.69;10439844;28;20070;-73
2023/09/20 20:05:48;;;;;;;1999.90;999.90;;;;;;;16.93;100.00;100230.16;10457128;28;20059;-73
2023/09/20 20:10:51;;;;;;;1999.90;999.90;;;;;;;16.96;100.00;100229.84;10439300;28;20052;-73
2023/09/20 20:15:54;;;;;;;1999.90;999.90;;;;;;;16.94;100.00;100220.41;10456875;28;20040;-73
2023/09/20 20:21:02;;;;;;;1999.90;999.90;;;;;;;16.90;100.00;100219.84;10456052;28;20453;-73
2023/09/20 20:26:12;;;;;;;1999.90;999.90;;;;;;;17.01;100.00;100214.41;10456668;28;20077;-73
2023/09/20 20:31:16;;;;;;;1999.90;999.90;;;;;;;16.88;100.00;100200.66;10438843;28;20056;-73
2023/09/20 20:36:19;;;;;;;1999.90;999.90;;;;;;;16.96;100.00;100184.88;10456423;28;20055;-73
2023/09/20 20:41:21;;;;;;;1999.90;999.90;;;;;;;16.88;100.00;100176.88;10437904;28;20099;-72
2023/09/20 20:46:24;;;;;;;1999.90;999.90;;;;;;;16.81;100.00;100165.16;10456269;28;20052;-72
2023/09/20 20:51:26;;;;;;;1999.90;999.90;;;;;;;16.95;100.00;100151.50;10455399;28;20391;-73
2023/09/20 20:56:31;;;;;;;1999.90;999.90;;;;;;;16.79;100.00;100130.94;10456073;28;20073;-73
2023/09/20 21:01:34;;;;;;;1999.90;999.90;;;;;;;16.82;100.00;100127.16;10456987;28;20042;-73
2023/09/20 21:06:38;;;;;;;1999.90;999.90;;;;;;;16.71;100.00;100115.81;10446168;28;20056;-73
2023/09/20 21:11:42;;;;;;;1999.90;999.90;;;;;;;16.83;100.00;100111.16;10463595;28;20072;-73
2023/09/20 21:16:45;;;;;;;1999.90;999.90;;;;;;;16.83;100.00;100105.06;10463467;28;20136;-73
2023/09/20 21:21:48;;;;;;;1999.90;999.90;;;;;;;16.87;100.00;100099.34;10463288;28;20123;-73
2023/09/20 21:26:52;;;;;;;1999.90;999.90;;;;;;;16.93;100.00;100090.00;10463173;28;20053;-74
2023/09/20 21:31:54;;;;;;;1999.90;999.90;;;;;;;17.07;100.00;100083.41;10462229;28;20485;-72
2023/09/20 21:36:57;;;;;;;1999.90;999.90;;;;;;;17.02;100.00;100080.34;10462678;28;20095;-73
2023/09/20 21:42:00;;;;;;;1999.90;999.90;;;;;;;17.05;100.00;100082.72;10461845;28;20060;-72
2023/09/20 21:47:02;;;;;;;1999.90;999.90;;;;;;;17.09;100.00;100074.31;10462310;28;20076;-73
2023/09/20 21:52:05;;;;;;;1999.90;999.90;;;;;;;17.11;100.00;100073.34;10462072;28;20056;-73
2023/09/20 21:57:07;;;;;;;1999.90;999.90;;;;;;;17.13;100.00;100071.38;10461326;28;20479;-73
2023/09/20 22:02:10;;;;;;;1999.90;999.90;;;;;;;17.20;100.00;100068.00;10443428;28;20509;-73
2023/09/20 22:07:13;;;;;;;1999.90;999.90;;;;;;;17.35;100.00;100055.09;10461552;28;20053;-73
2023/09/20 22:12:16;;;;;;;1999.90;999.90;;;;;;;17.50;100.00;100046.63;10442772;28;20513;-73
2023/09/20 22:17:19;;;;;;;1999.90;999.90;;;;;;;17.29;100.00;100044.28;10442016;28;20414;-73
2023/09/20 22:22:23;;;;;;;1999.90;999.90;;;;;;;17.29;100.00;100042.47;10442835;28;20049;-73
2023/09/20 22:27:26;;;;;;;1999.90;999.90;;;;;;;17.18;100.00;100037.38;10460113;28;20529;-73
2023/09/20 22:32:28;;;;;;;1999.90;999.90;;;;;;;17.08;100.00;100033.00;10460483;28;20128;-73
2023/09/20 22:37:30;;;;;;;1999.90;999.90;;;;;;;17.13;100.00;100034.34;10459680;28;20383;-73